Time;durP1;ratioP1;P1;durP2;ratioP2;P2;SDS_P1;SDS_P2;PMS_P1;PMS_P2;Temp;Humidity;BMP_temperature;BMP_pressure;BME280_temperature;BME280_humidity;BME280_pressure;Samples;Min_cycle;Max_cycle;Signal;HPM_P1;HPM_P2
2024/01/14 00:04:55;;;;;;;25.50;14.15;;;;;;;-0.56;81.26;99407.53;7191212;40;21316;31
2024/01/14 00:10:30;;;;;;;25.05;14.00;;;;;;;-0.71;80.73;99395.22;7266040;39;20316;31
2024/01/14 00:20:55;;;;;;;27.90;14.30;;;;;;;-0.51;81.27;99378.13;7197320;40;20772;31
2024/01/14 00:26:31;;;;;;;27.05;15.30;;;;;;;-0.57;81.61;99368.75;7218493;40;20697;31
2024/01/14 00:31:51;;;;;;;33.20;18.60;;;;;;;-0.40;81.33;99372.19;7192005;40;20291;31
2024/01/14 00:37:11;;;;;;;45.55;25.75;;;;;;;-0.34;80.83;99356.78;7339610;39;20255;31
2024/01/14 00:42:47;;;;;;;30.10;16.00;;;;;;;-0.43;80.33;99351.19;7064598;40;20333;31
2024/01/14 00:48:07;;;;;;;25.83;13.73;;;;;;;-0.59;81.29;99332.75;7289497;39;20264;31
2024/01/14 00:53:42;;;;;;;27.45;14.85;;;;;;;-0.64;81.70;99334.81;7296267;39;20599;31
2024/01/14 00:59:19;;;;;;;27.50;15.73;;;;;;;-0.53;81.65;99313.88;7256567;40;20329;31
2024/01/14 01:04:39;;;;;;;26.95;14.45;;;;;;;-0.51;81.31;99301.38;7215936;40;20298;31
2024/01/14 01:10:00;;;;;;;23.65;13.40;;;;;;;-0.57;81.45;99299.94;7296310;39;20286;31
2024/01/14 01:15:37;;;;;;;25.50;13.45;;;;;;;-0.63;81.52;99291.53;7246603;40;20511;31
2024/01/14 01:20:58;;;;;;;28.00;14.70;;;;;;;-0.72;81.11;99282.38;7232743;40;20253;31
2024/01/14 01:26:18;;;;;;;26.67;14.00;;;;;;;-0.63;81.97;99273.03;7257334;40;20256;31
2024/01/14 01:31:55;;;;;;;26.50;13.37;;;;;;;-0.74;81.06;99272.81;7237563;40;20313;31
2024/01/14 01:37:30;;;;;;;23.87;14.17;;;;;;;-0.75;81.20;99265.84;7205843;40;20249;31
2024/01/14 01:42:50;;;;;;;26.70;13.87;;;;;;;-0.60;81.71;99278.97;7210402;40;20281;31
2024/01/14 01:48:27;;;;;;;26.83;14.37;;;;;;;-0.55;81.40;99282.19;7245408;40;20266;31
2024/01/14 01:59:03;;;;;;;26.10;13.50;;;;;;;-0.57;81.13;99275.31;7218442;40;21281;31
2024/01/14 02:04:40;;;;;;;23.80;11.57;;;;;;;-0.61;81.04;99279.91;7287200;39;20237;31
2024/01/14 02:10:15;;;;;;;23.73;12.73;;;;;;;-0.66;81.13;99270.56;7304173;39;20326;31
2024/01/14 02:15:35;;;;;;;26.40;13.20;;;;;;;-0.65;80.29;99274.91;7277901;40;20650;31
2024/01/14 02:21:12;;;;;;;25.47;13.00;;;;;;;-0.62;81.32;99254.41;7258983;39;20320;31
2024/01/14 02:26:49;;;;;;;27.60;15.20;;;;;;;-0.61;80.65;99249.94;7202234;40;20682;31
2024/01/14 02:32:09;;;;;;;25.10;12.70;;;;;;;-0.65;80.94;99251.94;7159538;40;20263;31
2024/01/14 02:37:44;;;;;;;23.40;12.00;;;;;;;-0.69;80.64;99231.91;7196662;40;20329;31
2024/01/14 02:43:20;;;;;;;23.65;11.75;;;;;;;-0.69;80.76;99242.50;7187556;40;20620;31
2024/01/14 02:48:40;;;;;;;24.87;12.30;;;;;;;-0.62;80.79;99238.53;7220764;40;20235;31
2024/01/14 02:54:16;;;;;;;24.30;12.60;;;;;;;-0.73;81.02;99235.69;7181919;40;20243;31
2024/01/14 02:59:53;;;;;;;21.95;12.30;;;;;;;-0.82;80.86;99230.97;7170834;40;20265;31
2024/01/14 03:05:14;;;;;;;25.47;12.30;;;;;;;-0.88;81.84;99241.94;7175855;40;20385;31
2024/01/14 03:10:50;;;;;;;25.55;12.75;;;;;;;-0.84;80.83;99239.94;7187572;40;20243;31
2024/01/14 03:16:27;;;;;;;23.87;12.40;;;;;;;-0.86;82.05;99232.09;7221508;39;20832;31
2024/01/14 03:27:07;;;;;;;22.40;11.80;;;;;;;-0.78;81.61;99231.63;7229707;40;20255;31
2024/01/14 03:32:43;;;;;;;25.60;12.03;;;;;;;-0.93;82.02;99228.16;7221075;40;20301;31
2024/01/14 03:43:04;;;;;;;23.60;12.30;;;;;;;-0.80;81.83;99230.87;7216829;40;21339;31
2024/01/14 03:53:41;;;;;;;23.00;12.20;;;;;;;-0.85;81.13;99219.72;7237378;40;21245;31
2024/01/14 04:04:05;;;;;;;25.10;12.65;;;;;;;-0.85;82.32;99214.44;7320168;39;20250;31
2024/01/14 04:14:46;;;;;;;26.20;12.85;;;;;;;-1.04;82.06;99189.12;7316868;39;20704;31
2024/01/14 04:25:26;;;;;;;21.77;11.23;;;;;;;-1.07;83.18;99185.81;7242983;40;20407;31
2024/01/14 04:36:07;;;;;;;25.80;11.90;;;;;;;-1.08;82.56;99192.91;7190294;40;20749;31
2024/01/14 04:46:33;;;;;;;22.75;11.85;;;;;;;-1.08;82.91;99192.91;7236039;40;20256;31
2024/01/14 04:52:08;;;;;;;25.50;12.00;;;;;;;-1.03;82.86;99180.25;7239802;39;20456;31
2024/01/14 04:57:43;;;;;;;25.20;12.30;;;;;;;-1.04;83.12;99188.25;7248512;40;20325;31
2024/01/14 05:03:21;;;;;;;22.77;12.37;;;;;;;-1.19;82.67;99176.84;7256131;39;20227;31
2024/01/14 05:08:57;;;;;;;25.65;12.25;;;;;;;-1.12;82.84;99178.16;7206181;40;20679;31
2024/01/14 05:14:33;;;;;;;22.20;11.25;;;;;;;-1.16;83.02;99181.94;7170679;40;20401;31
2024/01/14 05:19:55;;;;;;;24.23;12.30;;;;;;;-1.15;82.91;99175.72;7176315;40;20341;31
2024/01/14 05:25:30;;;;;;;26.30;11.77;;;;;;;-1.23;82.65;99148.91;7210770;40;20390;31
2024/01/14 05:30:51;;;;;;;25.63;11.80;;;;;;;-1.24;83.28;99151.62;7202766;39;20250;31
2024/01/14 05:36:25;;;;;;;24.27;11.97;;;;;;;-1.27;83.56;99150.00;7255437;39;20249;31
2024/01/14 05:42:03;;;;;;;20.20;10.97;;;;;;;-1.32;83.59;99146.81;7227569;40;20250;31
2024/01/14 05:47:38;;;;;;;24.85;11.05;;;;;;;-1.32;83.83;99145.97;7218869;40;20352;31
2024/01/14 05:53:14;;;;;;;25.93;12.03;;;;;;;-1.39;84.31;99129.63;7214418;40;20372;31
2024/01/14 05:58:51;;;;;;;21.27;11.55;;;;;;;-1.36;84.06;99117.06;7189431;40;20758;31
2024/01/14 06:04:12;;;;;;;23.40;11.60;;;;;;;-1.39;83.98;99114.63;7221689;40;20293;31
2024/01/14 06:09:46;;;;;;;27.77;12.90;;;;;;;-1.43;84.08;99118.41;7198951;40;20411;31
2024/01/14 06:15:24;;;;;;;28.00;12.73;;;;;;;-1.45;84.04;99104.41;7246252;39;20320;31
2024/01/14 06:21:00;;;;;;;22.47;11.70;;;;;;;-1.39;84.35;99111.97;7180496;40;20366;31
2024/01/14 06:26:35;;;;;;;23.63;11.40;;;;;;;-1.33;84.53;99112.53;7201386;40;20399;31
2024/01/14 06:32:10;;;;;;;24.10;11.80;;;;;;;-1.37;84.06;99106.59;7258104;40;20245;31
2024/01/14 06:37:31;;;;;;;25.27;10.83;;;;;;;-1.35;84.54;99096.78;7258751;40;20350;31
2024/01/14 06:43:08;;;;;;;22.50;12.20;;;;;;;-1.43;83.63;99091.97;7281734;39;20322;31
2024/01/14 06:48:43;;;;;;;24.60;12.80;;;;;;;-1.46;83.92;99080.75;7247499;40;20253;31
2024/01/14 06:54:18;;;;;;;21.70;10.90;;;;;;;-1.44;84.50;99076.19;7211318;40;20251;31
2024/01/14 06:59:53;;;;;;;28.70;12.37;;;;;;;-1.44;84.02;99070.91;7208436;40;20235;31
2024/01/14 07:05:27;;;;;;;22.40;10.90;;;;;;;-1.44;83.82;99061.19;7169076;40;20267;31
2024/01/14 07:10:47;;;;;;;21.70;11.05;;;;;;;-1.52;84.03;99049.41;7196197;40;20463;31
2024/01/14 07:16:07;;;;;;;23.37;11.80;;;;;;;-1.50;84.65;99056.31;7207747;40;20451;31
2024/01/14 07:21:44;;;;;;;24.87;11.70;;;;;;;-1.53;84.00;99043.25;7235586;39;20245;31
2024/01/14 07:27:19;;;;;;;27.40;11.80;;;;;;;-1.54;84.41;99048.66;7220323;40;20246;31
2024/01/14 07:32:54;;;;;;;25.10;12.10;;;;;;;-1.59;84.33;99051.59;7238238;40;20400;31
2024/01/14 07:38:27;;;;;;;22.33;11.30;;;;;;;-1.67;85.06;99045.94;7053699;40;20254;31
2024/01/14 07:44:02;;;;;;;28.50;11.97;;;;;;;-1.69;84.59;99047.81;7168679;40;20392;31
2024/01/14 07:49:22;;;;;;;41.07;19.10;;;;;;;-1.71;85.34;99047.03;7189809;40;20250;31
2024/01/14 07:55:00;;;;;;;31.60;16.03;;;;;;;-1.74;84.47;99043.72;7149136;40;20258;31
2024/01/14 08:00:34;;;;;;;23.27;12.00;;;;;;;-1.73;84.97;99045.44;7171843;40;20253;31
2024/01/14 08:05:54;;;;;;;20.90;11.30;;;;;;;-1.74;85.61;99030.53;7178428;40;20240;31
2024/01/14 08:11:31;;;;;;;19.35;9.90;;;;;;;-1.80;85.10;99009.78;7205871;40;20394;31
2024/01/14 08:16:51;;;;;;;22.45;10.90;;;;;;;-1.71;85.62;99025.09;7191626;40;20447;31
2024/01/14 08:22:11;;;;;;;23.00;11.00;;;;;;;-1.62;85.42;99014.78;7159162;40;20262;31
2024/01/14 08:27:47;;;;;;;19.50;10.95;;;;;;;-1.64;84.54;99005.25;7146051;40;20459;31
2024/01/14 08:33:07;;;;;;;23.65;11.90;;;;;;;-1.66;85.14;99007.12;7222766;40;20390;31
2024/01/14 08:38:43;;;;;;;26.30;12.00;;;;;;;-1.51;85.17;98998.25;7246082;40;20863;31
2024/01/14 08:44:19;;;;;;;21.70;10.50;;;;;;;-1.54;85.10;99006.38;7213902;40;20340;31
2024/01/14 08:49:55;;;;;;;22.50;10.40;;;;;;;-1.49;84.18;98988.41;7216201;40;20277;31
2024/01/14 09:00:34;;;;;;;20.62;11.63;;;;;;;-1.49;84.12;98972.56;7247742;40;20383;31
2024/01/14 09:06:09;;;;;;;24.55;13.05;;;;;;;-1.39;84.24;98968.41;7233036;40;20373;31
2024/01/14 09:11:45;;;;;;;21.00;10.90;;;;;;;-1.49;83.99;98967.28;7275515;40;20263;31
2024/01/14 09:17:21;;;;;;;18.83;10.57;;;;;;;-1.36;84.34;98968.19;7254545;40;20887;31
2024/01/14 09:22:41;;;;;;;19.67;8.93;;;;;;;-1.24;83.58;98978.00;7236110;40;20433;31
2024/01/14 09:33:17;;;;;;;18.80;9.50;;;;;;;-1.22;83.75;98967.31;7253122;40;20683;31
2024/01/14 09:38:52;;;;;;;18.55;9.75;;;;;;;-1.17;83.77;98967.88;7263985;40;20371;31
2024/01/14 09:44:26;;;;;;;20.50;9.40;;;;;;;-1.21;83.15;98961.09;7264113;39;20264;31
2024/01/14 09:50:00;;;;;;;18.60;9.87;;;;;;;-1.16;83.68;98966.94;7177292;40;20311;31
2024/01/14 10:00:39;;;;;;;21.33;11.07;;;;;;;-1.10;83.57;98974.47;7158021;40;21339;31
2024/01/14 10:06:15;;;;;;;19.87;10.50;;;;;;;-1.08;82.93;98962.00;7165009;40;20287;31
2024/01/14 10:11:50;;;;;;;21.83;10.87;;;;;;;-0.99;83.12;98956.09;7204468;39;21591;31
2024/01/14 10:17:25;;;;;;;18.45;10.20;;;;;;;-0.98;83.35;98945.44;7237714;40;20237;31
2024/01/14 10:22:59;;;;;;;23.50;11.00;;;;;;;-0.91;83.64;98933.50;7245775;39;20254;31
2024/01/14 10:28:34;;;;;;;19.00;10.40;;;;;;;-0.80;82.59;98924.84;7238483;40;20231;31
2024/01/14 10:34:09;;;;;;;19.95;10.10;;;;;;;-0.64;82.12;98914.91;7217780;40;20396;31
2024/01/14 10:39:46;;;;;;;20.10;9.90;;;;;;;-0.61;81.75;98911.22;7178548;40;20247;31
2024/01/14 10:45:22;;;;;;;20.03;10.53;;;;;;;-0.63;81.51;98905.19;7208628;40;20447;31
2024/01/14 10:50:57;;;;;;;24.10;11.00;;;;;;;-0.73;81.83;98889.09;7220063;40;20247;31
2024/01/14 10:56:33;;;;;;;23.23;11.20;;;;;;;-0.73;82.10;98875.00;7191821;40;20255;31
2024/01/14 11:02:08;;;;;;;20.30;10.20;;;;;;;-0.66;81.65;98863.06;7198052;40;20255;31
2024/01/14 11:07:43;;;;;;;18.50;9.60;;;;;;;-0.65;82.26;98854.16;7221913;40;20231;31
2024/01/14 11:13:22;;;;;;;25.80;11.75;;;;;;;-0.59;81.78;98843.16;7153542;40;20368;31
2024/01/14 11:18:57;;;;;;;19.70;9.70;;;;;;;-0.62;82.24;98828.34;7155182;40;20271;31
2024/01/14 11:24:34;;;;;;;19.40;9.15;;;;;;;-0.61;81.67;98814.16;7162606;40;20244;31
2024/01/14 11:30:11;;;;;;;20.75;9.80;;;;;;;-0.53;81.66;98806.50;7179880;40;20258;31
2024/01/14 11:35:48;;;;;;;20.17;10.80;;;;;;;-0.52;81.32;98791.50;7216640;40;20258;31
2024/01/14 11:41:36;;;;;;;21.35;9.60;;;;;;;-0.59;81.67;98787.59;7180422;40;20246;31
2024/01/14 11:47:12;;;;;;;19.45;9.95;;;;;;;-0.51;80.98;98766.72;7202635;40;20231;31
2024/01/14 11:52:47;;;;;;;21.70;11.10;;;;;;;-0.46;81.24;98757.50;7196032;40;20354;31
2024/01/14 11:58:23;;;;;;;21.13;11.00;;;;;;;-0.38;81.77;98750.81;7184182;40;20250;31
2024/01/14 12:03:58;;;;;;;26.40;11.80;;;;;;;-0.34;80.79;98742.53;7171628;40;20243;31
2024/01/14 12:09:19;;;;;;;21.95;11.32;;;;;;;-0.26;80.74;98724.28;7137581;40;20276;31
2024/01/14 12:14:54;;;;;;;21.00;11.17;;;;;;;-0.29;81.46;98713.94;7210942;40;20253;31
2024/01/14 12:20:30;;;;;;;20.15;10.45;;;;;;;-0.22;80.57;98706.41;7198790;40;20243;31
2024/01/14 12:26:05;;;;;;;22.10;11.10;;;;;;;-0.29;80.25;98689.25;7220598;40;20398;31
2024/01/14 12:31:40;;;;;;;22.70;11.03;;;;;;;-0.26;80.45;98671.34;7152066;40;20473;31
2024/01/14 12:37:14;;;;;;;22.10;10.60;;;;;;;-0.24;80.29;98665.94;7236516;40;20238;31
2024/01/14 12:42:49;;;;;;;24.95;11.10;;;;;;;-0.15;80.41;98657.34;7222549;40;20321;31
2024/01/14 12:48:24;;;;;;;20.35;11.02;;;;;;;-0.26;80.49;98641.38;7218855;40;21467;31
2024/01/14 12:59:02;;;;;;;19.30;11.70;;;;;;;-0.36;81.09;98620.06;7200382;40;21329;31
2024/01/14 13:09:23;;;;;;;20.76;10.70;;;;;;;-0.23;80.50;98601.44;7262356;39;21285;31
2024/01/14 13:15:00;;;;;;;22.40;11.20;;;;;;;-0.33;80.87;98580.09;7259120;40;20268;31
2024/01/14 13:25:22;;;;;;;20.50;9.93;;;;;;;-0.31;80.22;98564.97;7256176;40;21570;31
2024/01/14 13:30:56;;;;;;;24.60;11.70;;;;;;;-0.40;81.01;98563.00;7202999;40;21443;31
2024/01/14 13:36:31;;;;;;;19.40;10.25;;;;;;;-0.51;80.81;98558.50;7286275;39;21621;31
2024/01/14 13:42:06;;;;;;;24.40;11.30;;;;;;;-0.55;80.50;98564.12;7235411;40;20437;31
2024/01/14 13:47:42;;;;;;;22.43;10.93;;;;;;;-0.63;80.22;98558.56;7176167;40;20294;31
2024/01/14 13:58:18;;;;;;;22.17;11.03;;;;;;;-0.69;81.04;98543.97;7187167;40;21228;31
2024/01/14 14:08:56;;;;;;;25.20;12.23;;;;;;;-0.76;80.32;98533.97;7241640;40;21385;31
2024/01/14 14:19:36;;;;;;;25.10;12.30;;;;;;;-0.64;80.26;98512.72;7277001;39;20749;31
2024/01/14 14:25:10;;;;;;;33.37;14.57;;;;;;;-0.54;80.20;98507.59;7070104;40;21209;31
2024/01/14 14:30:45;;;;;;;27.30;12.00;;;;;;;-0.42;79.65;98505.81;7313941;39;20245;31
2024/01/14 14:36:20;;;;;;;22.27;10.97;;;;;;;-0.32;80.08;98497.09;7258782;40;21366;31
2024/01/14 14:47:01;;;;;;;27.47;13.50;;;;;;;-0.52;78.70;98473.91;7307167;39;20735;31
2024/01/14 14:57:37;;;;;;;25.50;12.05;;;;;;;-0.58;78.72;98477.03;7276554;40;21339;31
2024/01/14 15:03:14;;;;;;;25.93;13.10;;;;;;;-0.66;78.32;98472.28;7264490;39;20231;31
2024/01/14 15:08:49;;;;;;;28.27;12.87;;;;;;;-0.53;78.91;98472.25;7189131;40;20395;31
2024/01/14 15:14:24;;;;;;;21.30;11.53;;;;;;;-0.49;78.29;98453.37;7120361;40;20247;31
2024/01/14 15:20:00;;;;;;;26.70;12.50;;;;;;;-0.55;78.12;98463.56;7130944;40;20322;31
2024/01/14 15:25:35;;;;;;;25.70;12.20;;;;;;;-0.55;78.50;98451.19;7171794;40;20253;31
2024/01/14 15:31:10;;;;;;;23.70;12.00;;;;;;;-0.48;78.34;98443.59;7216622;40;20332;31
2024/01/14 15:36:47;;;;;;;25.00;11.83;;;;;;;-0.54;78.24;98429.06;7228470;40;20358;31
2024/01/14 15:42:22;;;;;;;26.75;12.70;;;;;;;-0.50;77.58;98413.78;7210410;40;20250;31
2024/01/14 15:47:59;;;;;;;25.50;11.60;;;;;;;-0.48;77.57;98427.72;7207330;40;20332;31
2024/01/14 15:53:35;;;;;;;28.60;12.20;;;;;;;-0.59;77.39;98411.84;7177487;40;20262;31
2024/01/14 15:58:55;;;;;;;24.95;11.00;;;;;;;-0.59;78.33;98407.41;7189323;40;20491;31
2024/01/14 16:04:15;;;;;;;28.45;12.65;;;;;;;-0.61;77.74;98404.00;7226273;40;20357;31
2024/01/14 16:09:52;;;;;;;28.00;13.20;;;;;;;-0.69;77.41;98409.03;7222614;40;20312;31
2024/01/14 16:15:15;;;;;;;28.00;12.60;;;;;;;-0.67;78.59;98414.22;7232173;39;20313;31
2024/01/14 16:20:49;;;;;;;34.23;13.47;;;;;;;-0.77;78.14;98415.87;7260753;39;20257;31
2024/01/14 16:26:26;;;;;;;28.10;13.37;;;;;;;-0.93;77.37;98400.31;7246347;40;20242;31
2024/01/14 16:32:03;;;;;;;32.65;13.95;;;;;;;-0.94;77.56;98404.75;7251282;40;20308;31
2024/01/14 16:43:09;;;;;;;29.97;13.70;;;;;;;-1.10;77.78;98406.03;7255386;40;20762;31
2024/01/14 16:53:49;;;;;;;28.40;13.60;;;;;;;-1.20;78.13;98402.38;7291443;39;20727;31
2024/01/14 16:59:26;;;;;;;27.10;12.70;;;;;;;-1.25;77.66;98407.13;7278090;39;20319;31
2024/01/14 17:04:47;;;;;;;31.27;12.97;;;;;;;-1.30;77.62;98414.56;7253743;40;20304;31
2024/01/14 17:10:07;;;;;;;32.40;13.63;;;;;;;-1.38;77.76;98404.56;7255921;40;20276;31
2024/01/14 17:15:44;;;;;;;33.37;14.03;;;;;;;-1.47;78.08;98402.56;7313933;39;20351;31
2024/01/14 17:21:19;;;;;;;30.80;13.30;;;;;;;-1.43;77.74;98398.75;7267618;39;20300;31
2024/01/14 17:26:40;;;;;;;32.10;15.40;;;;;;;-1.36;77.20;98403.47;7218117;40;20243;31
2024/01/14 17:32:16;;;;;;;32.80;14.50;;;;;;;-1.44;77.02;98389.12;7217853;40;20246;31
2024/01/14 17:37:36;;;;;;;33.15;15.05;;;;;;;-1.38;77.72;98415.13;7197457;40;20246;31
2024/01/14 17:42:57;;;;;;;32.23;13.87;;;;;;;-1.68;77.64;98401.50;7214628;40;20358;31
2024/01/14 17:48:31;;;;;;;32.20;14.47;;;;;;;-1.64;78.12;98387.09;7235441;40;20277;31
2024/01/14 17:54:07;;;;;;;31.17;13.90;;;;;;;-1.64;77.96;98393.25;7245190;40;20249;31
2024/01/14 17:59:40;;;;;;;30.80;14.20;;;;;;;-1.65;77.95;98395.97;7189601;40;20251;31
2024/01/14 18:05:14;;;;;;;32.85;15.50;;;;;;;-1.71;78.11;98401.72;7168507;40;20247;31
2024/01/14 18:16:05;;;;;;;33.00;14.50;;;;;;;-1.86;77.56;98372.81;7200812;40;21235;31
2024/01/14 18:21:42;;;;;;;30.97;12.93;;;;;;;-1.88;78.10;98365.94;7166495;40;20247;31
2024/01/14 18:27:04;;;;;;;34.45;14.75;;;;;;;-1.86;77.69;98361.41;7202746;40;20257;31
2024/01/14 18:37:38;;;;;;;34.80;14.73;;;;;;;-1.87;77.69;98350.00;7292246;39;21244;31
2024/01/14 18:42:59;;;;;;;38.43;16.60;;;;;;;-1.87;77.80;98333.31;7295738;39;20263;31
2024/01/14 18:48:19;;;;;;;32.25;15.10;;;;;;;-1.75;78.00;98326.28;7302147;39;20312;31
2024/01/14 18:53:54;;;;;;;33.55;15.45;;;;;;;-1.68;77.56;98327.53;7300104;39;20494;31
2024/01/14 18:59:15;;;;;;;36.30;15.47;;;;;;;-1.71;77.41;98328.59;7295507;39;20258;31
2024/01/14 19:04:35;;;;;;;28.97;13.37;;;;;;;-1.81;76.49;98343.44;7319032;39;21463;31
2024/01/14 19:10:10;;;;;;;31.30;14.00;;;;;;;-1.91;77.59;98351.16;7316844;39;20244;31
2024/01/14 19:15:45;;;;;;;29.35;13.85;;;;;;;-1.90;75.97;98373.12;7257668;40;20238;31
2024/01/14 19:21:20;;;;;;;27.40;11.90;;;;;;;-2.02;76.62;98363.47;7258399;40;20246;31
2024/01/14 19:26:58;;;;;;;31.35;14.30;;;;;;;-2.07;76.72;98373.50;7215879;40;20270;31
2024/01/14 19:32:32;;;;;;;26.50;13.90;;;;;;;-2.11;76.40;98378.16;7157621;40;20358;31
2024/01/14 19:38:07;;;;;;;28.40;13.30;;;;;;;-2.27;75.95;98382.81;7170406;40;20364;31
2024/01/14 19:43:42;;;;;;;29.77;14.13;;;;;;;-2.21;77.02;98377.09;7155551;40;20256;31
2024/01/14 19:49:14;;;;;;;28.67;12.10;;;;;;;-2.10;76.83;98382.47;7143676;40;20266;31
2024/01/14 19:54:49;;;;;;;27.17;13.40;;;;;;;-2.14;76.73;98378.34;7227135;39;20257;31
2024/01/14 20:00:27;;;;;;;26.67;13.83;;;;;;;-2.04;77.21;98382.03;7216462;40;20352;31
2024/01/14 20:06:01;;;;;;;28.50;13.10;;;;;;;-1.94;76.53;98385.72;7218315;40;20257;31
2024/01/14 20:11:23;;;;;;;28.70;12.80;;;;;;;-1.95;77.13;98375.25;7240210;40;20332;31
2024/01/14 20:17:00;;;;;;;26.33;13.10;;;;;;;-1.90;77.21;98363.44;7256787;40;20245;31
2024/01/14 20:22:34;;;;;;;24.40;11.60;;;;;;;-1.91;76.20;98359.09;7192397;40;20258;31
2024/01/14 20:27:55;;;;;;;24.60;12.27;;;;;;;-1.89;76.76;98357.16;7211050;40;20323;31
2024/01/14 20:33:29;;;;;;;26.10;11.90;;;;;;;-1.85;77.02;98340.19;7204950;40;20319;31
2024/01/14 20:38:49;;;;;;;24.60;12.45;;;;;;;-1.84;76.91;98339.19;7204465;40;20261;31
2024/01/14 20:44:24;;;;;;;23.67;11.17;;;;;;;-1.85;76.88;98337.53;7230348;40;20250;31
2024/01/14 20:50:00;;;;;;;23.40;11.50;;;;;;;-1.86;76.62;98327.06;7236245;40;20253;31
2024/01/14 20:55:32;;;;;;;25.10;12.75;;;;;;;-1.87;76.47;98328.88;7037899;40;20242;31
2024/01/14 21:01:07;;;;;;;19.80;9.75;;;;;;;-1.90;76.70;98331.75;7297543;39;21410;31
2024/01/14 21:11:48;;;;;;;23.00;11.45;;;;;;;-1.91;76.90;98316.00;7253224;40;20762;31
2024/01/14 21:17:08;;;;;;;23.23;11.30;;;;;;;-1.93;77.19;98323.19;7227887;40;20403;31
2024/01/14 21:27:49;;;;;;;21.30;10.53;;;;;;;-1.87;77.14;98317.47;7275941;39;20751;31
2024/01/14 21:38:10;;;;;;;24.83;11.97;;;;;;;-1.69;77.08;98320.56;7267531;39;21297;31
2024/01/14 21:43:47;;;;;;;25.00;11.80;;;;;;;-1.70;78.05;98314.44;7278226;39;20261;31
2024/01/14 21:54:11;;;;;;;24.90;11.50;;;;;;;-1.67;77.51;98329.22;7234995;40;20719;31
2024/01/14 22:04:52;;;;;;;22.60;10.77;;;;;;;-1.72;78.71;98313.72;7231019;40;20758;31
2024/01/14 22:10:27;;;;;;;27.37;11.60;;;;;;;-1.73;78.48;98337.59;7276930;39;20253;31
2024/01/14 22:16:02;;;;;;;26.27;10.93;;;;;;;-1.90;78.72;98331.75;7243607;40;20289;31
2024/01/14 22:26:44;;;;;;;23.85;10.65;;;;;;;-1.81;78.29;98324.94;7251490;39;20281;31
2024/01/14 22:32:17;;;;;;;21.80;10.55;;;;;;;-1.73;78.45;98314.66;7189679;40;20374;31
2024/01/14 22:37:52;;;;;;;22.43;10.77;;;;;;;-1.80;78.42;98302.03;7214802;40;20352;31
2024/01/14 22:48:32;;;;;;;24.73;11.03;;;;;;;-1.90;79.39;98307.97;7221364;40;20359;31
2024/01/14 22:58:57;;;;;;;21.95;10.15;;;;;;;-1.91;79.38;98297.53;7301379;39;20270;31
2024/01/14 23:04:34;;;;;;;19.63;9.57;;;;;;;-2.03;79.90;98306.34;7259077;39;20264;31
2024/01/14 23:09:54;;;;;;;26.70;10.60;;;;;;;-2.04;80.50;98316.03;7240087;39;20248;31
2024/01/14 23:15:14;;;;;;;21.00;10.50;;;;;;;-2.02;80.91;98303.56;7258452;40;20257;31
2024/01/14 23:20:51;;;;;;;22.97;11.37;;;;;;;-2.06;80.86;98296.81;7229729;40;20399;31
2024/01/14 23:26:12;;;;;;;22.23;11.00;;;;;;;-2.00;81.02;98274.41;7245997;40;20262;31
2024/01/14 23:31:46;;;;;;;16.87;8.93;;;;;;;-2.00;80.61;98256.78;7268536;40;20407;31
2024/01/14 23:37:23;;;;;;;25.33;11.23;;;;;;;-2.06;80.58;98254.59;7277480;40;20343;31
2024/01/14 23:42:43;;;;;;;16.23;8.97;;;;;;;-2.05;81.07;98236.94;7262879;39;20327;31
2024/01/14 23:48:04;;;;;;;20.90;9.70;;;;;;;-2.06;80.40;98225.56;7251144;40;20255;31
2024/01/14 23:53:40;;;;;;;22.30;10.30;;;;;;;-2.10;81.20;98220.59;7274428;39;20393;31
2024/01/14 23:59:00;;;;;;;17.80;9.50;;;;;;;-2.03;80.77;98217.44;7262016;40;20349;31
